sensor_id;sensor_type;location;lat;lon;timestamp;P1;durP1;ratioP1;P2;durP2;ratioP2
24337;SDS011;12457;50.832;4.346;2023-06-19T00:00:10;6.57;;;3.95;;
24337;SDS011;12457;50.832;4.346;2023-06-19T00:02:40;7.47;;;3.95;;
24337;SDS011;12457;50.832;4.346;2023-06-19T00:05:07;7.72;;;4.57;;
24337;SDS011;12457;50.832;4.346;2023-06-19T00:07:34;6.38;;;4.07;;
24337;SDS011;12457;50.832;4.346;2023-06-19T00:10:04;6.45;;;3.88;;
24337;SDS011;12457;50.832;4.346;2023-06-19T00:12:31;7.05;;;4.10;;
24337;SDS011;12457;50.832;4.346;2023-06-19T00:14:57;7.32;;;4.03;;
24337;SDS011;12457;50.832;4.346;2023-06-19T00:20:20;6.00;;;3.47;;
24337;SDS011;12457;50.832;4.346;2023-06-19T00:22:46;6.13;;;4.00;;
24337;SDS011;12457;50.832;4.346;2023-06-19T00:25:16;6.57;;;4.13;;
24337;SDS011;12457;50.832;4.346;2023-06-19T00:27:43;6.95;;;3.65;;
24337;SDS011;12457;50.832;4.346;2023-06-19T00:30:09;4.47;;;3.53;;
24337;SDS011;12457;50.832;4.346;2023-06-19T00:32:35;4.75;;;3.38;;
24337;SDS011;12457;50.832;4.346;2023-06-19T00:35:11;5.78;;;3.80;;
24337;SDS011;12457;50.832;4.346;2023-06-19T00:37:42;6.35;;;3.75;;
24337;SDS011;12457;50.832;4.346;2023-06-19T00:40:27;10.88;;;3.92;;
24337;SDS011;12457;50.832;4.346;2023-06-19T00:42:58;7.75;;;3.35;;
24337;SDS011;12457;50.832;4.346;2023-06-19T00:45:24;7.93;;;3.13;;
24337;SDS011;12457;50.832;4.346;2023-06-19T00:47:51;3.58;;;3.15;;
24337;SDS011;12457;50.832;4.346;2023-06-19T00:50:18;7.60;;;3.33;;
24337;SDS011;12457;50.832;4.346;2023-06-19T00:52:44;4.72;;;3.08;;
24337;SDS011;12457;50.832;4.346;2023-06-19T00:55:10;8.32;;;3.58;;
24337;SDS011;12457;50.832;4.346;2023-06-19T00:57:36;6.97;;;3.13;;
24337;SDS011;12457;50.832;4.346;2023-06-19T01:00:03;5.97;;;3.55;;
24337;SDS011;12457;50.832;4.346;2023-06-19T01:02:31;5.47;;;3.20;;
24337;SDS011;12457;50.832;4.346;2023-06-19T01:04:59;5.07;;;3.22;;
24337;SDS011;12457;50.832;4.346;2023-06-19T01:07:30;5.68;;;3.60;;
24337;SDS011;12457;50.832;4.346;2023-06-19T01:10:04;4.90;;;3.25;;
24337;SDS011;12457;50.832;4.346;2023-06-19T01:12:35;5.78;;;3.58;;
24337;SDS011;12457;50.832;4.346;2023-06-19T01:15:04;6.65;;;3.58;;
24337;SDS011;12457;50.832;4.346;2023-06-19T01:17:30;7.55;;;3.42;;
24337;SDS011;12457;50.832;4.346;2023-06-19T01:19:57;4.97;;;3.20;;
24337;SDS011;12457;50.832;4.346;2023-06-19T01:22:25;8.88;;;3.80;;
24337;SDS011;12457;50.832;4.346;2023-06-19T01:24:50;5.15;;;3.90;;
24337;SDS011;12457;50.832;4.346;2023-06-19T01:27:16;7.05;;;2.70;;
24337;SDS011;12457;50.832;4.346;2023-06-19T01:29:43;7.78;;;3.72;;
24337;SDS011;12457;50.832;4.346;2023-06-19T01:32:17;5.65;;;3.90;;
24337;SDS011;12457;50.832;4.346;2023-06-19T01:34:49;5.18;;;3.40;;
24337;SDS011;12457;50.832;4.346;2023-06-19T01:37:17;5.85;;;3.95;;
24337;SDS011;12457;50.832;4.346;2023-06-19T01:39:43;7.00;;;3.88;;
24337;SDS011;12457;50.832;4.346;2023-06-19T01:42:11;6.72;;;3.67;;
24337;SDS011;12457;50.832;4.346;2023-06-19T01:44:38;5.45;;;3.35;;
24337;SDS011;12457;50.832;4.346;2023-06-19T01:47:12;6.22;;;3.30;;
24337;SDS011;12457;50.832;4.346;2023-06-19T01:49:40;6.78;;;3.72;;
24337;SDS011;12457;50.832;4.346;2023-06-19T01:52:07;7.47;;;3.63;;
24337;SDS011;12457;50.832;4.346;2023-06-19T01:54:33;7.80;;;3.95;;
24337;SDS011;12457;50.832;4.346;2023-06-19T01:56:59;8.25;;;4.03;;
24337;SDS011;12457;50.832;4.346;2023-06-19T01:59:25;6.70;;;3.60;;
24337;SDS011;12457;50.832;4.346;2023-06-19T02:01:50;8.60;;;4.43;;
24337;SDS011;12457;50.832;4.346;2023-06-19T02:04:16;8.60;;;4.03;;
24337;SDS011;12457;50.832;4.346;2023-06-19T02:06:42;6.97;;;3.78;;
24337;SDS011;12457;50.832;4.346;2023-06-19T02:09:07;9.32;;;3.70;;
24337;SDS011;12457;50.832;4.346;2023-06-19T02:11:33;8.25;;;4.28;;
24337;SDS011;12457;50.832;4.346;2023-06-19T02:13:59;6.45;;;4.03;;
24337;SDS011;12457;50.832;4.346;2023-06-19T02:16:25;9.20;;;3.97;;
24337;SDS011;12457;50.832;4.346;2023-06-19T02:18:50;7.20;;;4.05;;
24337;SDS011;12457;50.832;4.346;2023-06-19T02:21:16;10.65;;;4.47;;
24337;SDS011;12457;50.832;4.346;2023-06-19T02:23:42;7.15;;;4.25;;
24337;SDS011;12457;50.832;4.346;2023-06-19T02:26:07;11.43;;;4.35;;
24337;SDS011;12457;50.832;4.346;2023-06-19T02:28:34;7.85;;;5.03;;
24337;SDS011;12457;50.832;4.346;2023-06-19T02:31:00;9.77;;;4.47;;
24337;SDS011;12457;50.832;4.346;2023-06-19T02:33:25;10.18;;;4.57;;
24337;SDS011;12457;50.832;4.346;2023-06-19T02:35:52;8.35;;;4.35;;
24337;SDS011;12457;50.832;4.346;2023-06-19T02:38:24;9.02;;;4.72;;
24337;SDS011;12457;50.832;4.346;2023-06-19T02:40:50;8.25;;;4.18;;
24337;SDS011;12457;50.832;4.346;2023-06-19T02:43:16;6.70;;;5.15;;
24337;SDS011;12457;50.832;4.346;2023-06-19T02:45:41;5.40;;;4.60;;
24337;SDS011;12457;50.832;4.346;2023-06-19T02:48:07;10.43;;;5.07;;
24337;SDS011;12457;50.832;4.346;2023-06-19T02:50:33;11.52;;;5.75;;
24337;SDS011;12457;50.832;4.346;2023-06-19T02:53:00;10.05;;;4.90;;
24337;SDS011;12457;50.832;4.346;2023-06-19T02:55:26;9.30;;;5.50;;
24337;SDS011;12457;50.832;4.346;2023-06-19T02:57:52;8.90;;;5.40;;
24337;SDS011;12457;50.832;4.346;2023-06-19T03:00:18;8.57;;;5.88;;
24337;SDS011;12457;50.832;4.346;2023-06-19T03:02:44;14.52;;;6.72;;
24337;SDS011;12457;50.832;4.346;2023-06-19T03:05:13;11.77;;;6.20;;
24337;SDS011;12457;50.832;4.346;2023-06-19T03:07:41;7.03;;;6.18;;
24337;SDS011;12457;50.832;4.346;2023-06-19T03:10:07;8.00;;;6.30;;
24337;SDS011;12457;50.832;4.346;2023-06-19T03:12:33;11.18;;;6.65;;
24337;SDS011;12457;50.832;4.346;2023-06-19T03:15:00;9.75;;;7.40;;
24337;SDS011;12457;50.832;4.346;2023-06-19T03:17:27;9.75;;;6.93;;
24337;SDS011;12457;50.832;4.346;2023-06-19T03:19:53;9.95;;;6.65;;
24337;SDS011;12457;50.832;4.346;2023-06-19T03:22:19;9.18;;;7.35;;
24337;SDS011;12457;50.832;4.346;2023-06-19T03:24:46;14.40;;;7.00;;
24337;SDS011;12457;50.832;4.346;2023-06-19T03:27:12;10.32;;;6.88;;
24337;SDS011;12457;50.832;4.346;2023-06-19T03:29:37;11.23;;;7.50;;
24337;SDS011;12457;50.832;4.346;2023-06-19T03:32:18;8.90;;;6.80;;
24337;SDS011;12457;50.832;4.346;2023-06-19T03:34:45;10.95;;;7.53;;
24337;SDS011;12457;50.832;4.346;2023-06-19T03:37:14;16.10;;;8.68;;
24337;SDS011;12457;50.832;4.346;2023-06-19T03:39:41;11.13;;;8.27;;
24337;SDS011;12457;50.832;4.346;2023-06-19T03:42:08;13.85;;;10.65;;
24337;SDS011;12457;50.832;4.346;2023-06-19T03:44:34;13.43;;;8.80;;
24337;SDS011;12457;50.832;4.346;2023-06-19T03:46:59;13.70;;;8.98;;
24337;SDS011;12457;50.832;4.346;2023-06-19T03:49:25;13.70;;;9.55;;
24337;SDS011;12457;50.832;4.346;2023-06-19T03:51:51;13.18;;;10.50;;
24337;SDS011;12457;50.832;4.346;2023-06-19T03:54:19;16.40;;;10.82;;
24337;SDS011;12457;50.832;4.346;2023-06-19T03:56:45;11.63;;;9.48;;
24337;SDS011;12457;50.832;4.346;2023-06-19T03:59:11;12.70;;;8.73;;
24337;SDS011;12457;50.832;4.346;2023-06-19T04:01:36;12.10;;;8.90;;
24337;SDS011;12457;50.832;4.346;2023-06-19T04:07:25;15.35;;;8.85;;
24337;SDS011;12457;50.832;4.346;2023-06-19T04:09:50;13.82;;;9.32;;
24337;SDS011;12457;50.832;4.346;2023-06-19T04:12:16;16.00;;;8.93;;
24337;SDS011;12457;50.832;4.346;2023-06-19T04:14:42;16.00;;;10.02;;
24337;SDS011;12457;50.832;4.346;2023-06-19T04:17:07;15.35;;;10.25;;
24337;SDS011;12457;50.832;4.346;2023-06-19T04:19:33;16.42;;;9.38;;
24337;SDS011;12457;50.832;4.346;2023-06-19T04:21:59;19.08;;;11.60;;
24337;SDS011;12457;50.832;4.346;2023-06-19T04:24:25;15.20;;;9.10;;
24337;SDS011;12457;50.832;4.346;2023-06-19T04:26:50;12.32;;;8.43;;
24337;SDS011;12457;50.832;4.346;2023-06-19T04:29:16;12.20;;;9.20;;
24337;SDS011;12457;50.832;4.346;2023-06-19T04:31:45;19.95;;;9.40;;
24337;SDS011;12457;50.832;4.346;2023-06-19T04:34:22;14.20;;;9.60;;
24337;SDS011;12457;50.832;4.346;2023-06-19T04:36:48;15.75;;;8.82;;
24337;SDS011;12457;50.832;4.346;2023-06-19T04:39:14;15.05;;;8.90;;
24337;SDS011;12457;50.832;4.346;2023-06-19T04:41:40;12.93;;;9.00;;
24337;SDS011;12457;50.832;4.346;2023-06-19T04:44:10;14.15;;;8.68;;
24337;SDS011;12457;50.832;4.346;2023-06-19T04:46:40;15.50;;;8.98;;
24337;SDS011;12457;50.832;4.346;2023-06-19T04:49:06;18.02;;;9.80;;
24337;SDS011;12457;50.832;4.346;2023-06-19T04:51:32;16.00;;;9.05;;
24337;SDS011;12457;50.832;4.346;2023-06-19T04:53:58;15.70;;;9.07;;
24337;SDS011;12457;50.832;4.346;2023-06-19T04:56:24;13.23;;;8.73;;
24337;SDS011;12457;50.832;4.346;2023-06-19T04:58:50;17.33;;;9.35;;
24337;SDS011;12457;50.832;4.346;2023-06-19T05:01:16;13.20;;;8.65;;
24337;SDS011;12457;50.832;4.346;2023-06-19T05:03:45;13.15;;;8.80;;
24337;SDS011;12457;50.832;4.346;2023-06-19T05:06:11;13.18;;;8.80;;
24337;SDS011;12457;50.832;4.346;2023-06-19T05:08:37;11.82;;;7.95;;
24337;SDS011;12457;50.832;4.346;2023-06-19T05:11:03;15.00;;;8.65;;
24337;SDS011;12457;50.832;4.346;2023-06-19T05:13:30;21.48;;;8.55;;
24337;SDS011;12457;50.832;4.346;2023-06-19T05:15:55;15.88;;;8.63;;
24337;SDS011;12457;50.832;4.346;2023-06-19T05:18:22;14.98;;;8.15;;
24337;SDS011;12457;50.832;4.346;2023-06-19T05:20:47;13.52;;;8.70;;
24337;SDS011;12457;50.832;4.346;2023-06-19T05:23:13;12.45;;;8.45;;
24337;SDS011;12457;50.832;4.346;2023-06-19T05:25:39;14.55;;;9.02;;
24337;SDS011;12457;50.832;4.346;2023-06-19T05:28:06;15.07;;;8.73;;
24337;SDS011;12457;50.832;4.346;2023-06-19T05:30:32;16.05;;;9.13;;
24337;SDS011;12457;50.832;4.346;2023-06-19T05:32:57;14.73;;;10.30;;
24337;SDS011;12457;50.832;4.346;2023-06-19T05:35:23;18.80;;;11.45;;
24337;SDS011;12457;50.832;4.346;2023-06-19T05:37:50;16.48;;;11.30;;
24337;SDS011;12457;50.832;4.346;2023-06-19T05:40:16;16.08;;;10.30;;
24337;SDS011;12457;50.832;4.346;2023-06-19T05:42:42;16.85;;;10.55;;
24337;SDS011;12457;50.832;4.346;2023-06-19T05:45:07;14.45;;;10.40;;
24337;SDS011;12457;50.832;4.346;2023-06-19T05:47:33;14.40;;;9.13;;
24337;SDS011;12457;50.832;4.346;2023-06-19T05:49:59;18.20;;;11.07;;
24337;SDS011;12457;50.832;4.346;2023-06-19T05:52:25;18.77;;;12.50;;
24337;SDS011;12457;50.832;4.346;2023-06-19T05:54:51;17.85;;;13.00;;
24337;SDS011;12457;50.832;4.346;2023-06-19T05:57:18;20.73;;;13.07;;
24337;SDS011;12457;50.832;4.346;2023-06-19T05:59:49;18.83;;;13.60;;
24337;SDS011;12457;50.832;4.346;2023-06-19T06:02:17;18.80;;;13.00;;
24337;SDS011;12457;50.832;4.346;2023-06-19T06:04:43;18.50;;;12.80;;
24337;SDS011;12457;50.832;4.346;2023-06-19T06:07:09;20.27;;;11.38;;
24337;SDS011;12457;50.832;4.346;2023-06-19T06:09:35;17.65;;;12.73;;
24337;SDS011;12457;50.832;4.346;2023-06-19T06:12:01;20.65;;;12.52;;
24337;SDS011;12457;50.832;4.346;2023-06-19T06:14:26;16.90;;;12.23;;
24337;SDS011;12457;50.832;4.346;2023-06-19T06:16:52;21.20;;;14.20;;
24337;SDS011;12457;50.832;4.346;2023-06-19T06:19:21;17.20;;;12.80;;
24337;SDS011;12457;50.832;4.346;2023-06-19T06:21:50;19.58;;;12.27;;
24337;SDS011;12457;50.832;4.346;2023-06-19T06:24:15;18.58;;;13.77;;
24337;SDS011;12457;50.832;4.346;2023-06-19T06:26:41;17.75;;;13.35;;
24337;SDS011;12457;50.832;4.346;2023-06-19T06:29:07;19.10;;;13.10;;
24337;SDS011;12457;50.832;4.346;2023-06-19T06:31:33;20.20;;;13.95;;
24337;SDS011;12457;50.832;4.346;2023-06-19T06:34:00;16.67;;;12.93;;
24337;SDS011;12457;50.832;4.346;2023-06-19T06:36:25;19.92;;;12.20;;
24337;SDS011;12457;50.832;4.346;2023-06-19T06:38:51;18.80;;;13.27;;
24337;SDS011;12457;50.832;4.346;2023-06-19T06:41:17;18.00;;;12.63;;
24337;SDS011;12457;50.832;4.346;2023-06-19T06:43:42;20.23;;;12.95;;
24337;SDS011;12457;50.832;4.346;2023-06-19T06:46:08;21.13;;;12.50;;
24337;SDS011;12457;50.832;4.346;2023-06-19T06:48:35;18.85;;;11.73;;
24337;SDS011;12457;50.832;4.346;2023-06-19T06:51:01;19.15;;;12.45;;
24337;SDS011;12457;50.832;4.346;2023-06-19T06:53:27;18.27;;;11.60;;
24337;SDS011;12457;50.832;4.346;2023-06-19T06:55:54;17.83;;;11.55;;
24337;SDS011;12457;50.832;4.346;2023-06-19T06:58:20;19.20;;;11.82;;
24337;SDS011;12457;50.832;4.346;2023-06-19T07:00:46;16.42;;;12.40;;
24337;SDS011;12457;50.832;4.346;2023-06-19T07:03:12;20.75;;;11.93;;
24337;SDS011;12457;50.832;4.346;2023-06-19T07:05:38;18.75;;;12.55;;
24337;SDS011;12457;50.832;4.346;2023-06-19T07:08:04;16.88;;;11.48;;
24337;SDS011;12457;50.832;4.346;2023-06-19T07:10:30;19.75;;;11.63;;
24337;SDS011;12457;50.832;4.346;2023-06-19T07:12:56;16.75;;;12.00;;
24337;SDS011;12457;50.832;4.346;2023-06-19T07:15:22;18.73;;;11.90;;
24337;SDS011;12457;50.832;4.346;2023-06-19T07:17:50;20.02;;;9.82;;
24337;SDS011;12457;50.832;4.346;2023-06-19T07:20:15;15.63;;;9.18;;
24337;SDS011;12457;50.832;4.346;2023-06-19T07:22:43;13.63;;;9.38;;
24337;SDS011;12457;50.832;4.346;2023-06-19T07:25:10;16.83;;;8.75;;
24337;SDS011;12457;50.832;4.346;2023-06-19T07:27:39;13.73;;;9.57;;
24337;SDS011;12457;50.832;4.346;2023-06-19T07:30:05;14.45;;;8.82;;
24337;SDS011;12457;50.832;4.346;2023-06-19T07:32:32;17.23;;;9.38;;
24337;SDS011;12457;50.832;4.346;2023-06-19T07:34:58;16.80;;;9.10;;
24337;SDS011;12457;50.832;4.346;2023-06-19T07:37:23;14.07;;;8.95;;
24337;SDS011;12457;50.832;4.346;2023-06-19T07:39:49;13.10;;;8.50;;
24337;SDS011;12457;50.832;4.346;2023-06-19T07:42:16;14.65;;;10.00;;
24337;SDS011;12457;50.832;4.346;2023-06-19T07:44:43;14.40;;;9.25;;
24337;SDS011;12457;50.832;4.346;2023-06-19T07:47:09;14.60;;;9.07;;
24337;SDS011;12457;50.832;4.346;2023-06-19T07:49:40;17.60;;;9.02;;
24337;SDS011;12457;50.832;4.346;2023-06-19T07:52:06;14.40;;;8.57;;
24337;SDS011;12457;50.832;4.346;2023-06-19T07:54:34;14.23;;;8.90;;
24337;SDS011;12457;50.832;4.346;2023-06-19T07:57:00;15.30;;;8.88;;
24337;SDS011;12457;50.832;4.346;2023-06-19T07:59:26;14.50;;;8.20;;
24337;SDS011;12457;50.832;4.346;2023-06-19T08:01:52;12.82;;;7.70;;
24337;SDS011;12457;50.832;4.346;2023-06-19T08:04:18;12.13;;;7.28;;
24337;SDS011;12457;50.832;4.346;2023-06-19T08:06:43;13.60;;;7.65;;
24337;SDS011;12457;50.832;4.346;2023-06-19T08:09:10;14.20;;;7.88;;
24337;SDS011;12457;50.832;4.346;2023-06-19T08:11:36;13.57;;;7.60;;
24337;SDS011;12457;50.832;4.346;2023-06-19T08:14:02;11.77;;;7.05;;
24337;SDS011;12457;50.832;4.346;2023-06-19T08:16:28;12.45;;;8.50;;
24337;SDS011;12457;50.832;4.346;2023-06-19T08:18:54;14.98;;;7.40;;
24337;SDS011;12457;50.832;4.346;2023-06-19T08:21:25;17.48;;;7.45;;
24337;SDS011;12457;50.832;4.346;2023-06-19T08:23:50;13.95;;;7.50;;
24337;SDS011;12457;50.832;4.346;2023-06-19T08:26:16;13.73;;;7.07;;
24337;SDS011;12457;50.832;4.346;2023-06-19T08:28:43;11.82;;;7.35;;
24337;SDS011;12457;50.832;4.346;2023-06-19T08:31:09;10.98;;;7.28;;
24337;SDS011;12457;50.832;4.346;2023-06-19T08:33:35;17.25;;;8.13;;
24337;SDS011;12457;50.832;4.346;2023-06-19T08:36:02;15.70;;;6.93;;
24337;SDS011;12457;50.832;4.346;2023-06-19T08:38:28;11.70;;;6.50;;
24337;SDS011;12457;50.832;4.346;2023-06-19T08:40:53;15.52;;;7.18;;
24337;SDS011;12457;50.832;4.346;2023-06-19T08:43:20;10.45;;;6.35;;
24337;SDS011;12457;50.832;4.346;2023-06-19T08:45:54;10.57;;;6.75;;
24337;SDS011;12457;50.832;4.346;2023-06-19T08:48:36;13.32;;;6.38;;
24337;SDS011;12457;50.832;4.346;2023-06-19T08:51:02;12.35;;;6.90;;
24337;SDS011;12457;50.832;4.346;2023-06-19T08:53:29;10.57;;;6.18;;
24337;SDS011;12457;50.832;4.346;2023-06-19T08:56:00;12.88;;;6.65;;
24337;SDS011;12457;50.832;4.346;2023-06-19T08:58:25;11.95;;;7.13;;
24337;SDS011;12457;50.832;4.346;2023-06-19T09:00:51;13.43;;;7.05;;
24337;SDS011;12457;50.832;4.346;2023-06-19T09:03:20;18.17;;;8.40;;
24337;SDS011;12457;50.832;4.346;2023-06-19T09:05:47;13.80;;;7.15;;
24337;SDS011;12457;50.832;4.346;2023-06-19T09:08:15;14.65;;;7.15;;
24337;SDS011;12457;50.832;4.346;2023-06-19T09:10:42;20.27;;;7.38;;
24337;SDS011;12457;50.832;4.346;2023-06-19T09:13:08;17.70;;;7.10;;
24337;SDS011;12457;50.832;4.346;2023-06-19T09:15:35;15.05;;;6.78;;
24337;SDS011;12457;50.832;4.346;2023-06-19T09:18:05;10.57;;;6.82;;
24337;SDS011;12457;50.832;4.346;2023-06-19T09:20:52;13.07;;;6.75;;
24337;SDS011;12457;50.832;4.346;2023-06-19T09:23:19;10.18;;;6.40;;
24337;SDS011;12457;50.832;4.346;2023-06-19T09:31:00;12.07;;;6.90;;
24337;SDS011;12457;50.832;4.346;2023-06-19T09:33:28;18.10;;;6.75;;
24337;SDS011;12457;50.832;4.346;2023-06-19T09:35:55;17.38;;;6.03;;
24337;SDS011;12457;50.832;4.346;2023-06-19T09:38:30;12.98;;;6.55;;
24337;SDS011;12457;50.832;4.346;2023-06-19T09:40:57;19.23;;;6.68;;
24337;SDS011;12457;50.832;4.346;2023-06-19T09:45:59;10.65;;;5.70;;
24337;SDS011;12457;50.832;4.346;2023-06-19T09:48:27;17.65;;;6.88;;
24337;SDS011;12457;50.832;4.346;2023-06-19T09:51:30;14.73;;;7.57;;
24337;SDS011;12457;50.832;4.346;2023-06-19T09:53:53;14.07;;;7.55;;
24337;SDS011;12457;50.832;4.346;2023-06-19T09:56:19;12.00;;;6.88;;
24337;SDS011;12457;50.832;4.346;2023-06-19T09:58:49;19.63;;;7.75;;
24337;SDS011;12457;50.832;4.346;2023-06-19T10:01:17;15.38;;;7.28;;
24337;SDS011;12457;50.832;4.346;2023-06-19T10:03:44;15.65;;;7.13;;
24337;SDS011;12457;50.832;4.346;2023-06-19T10:06:14;13.55;;;7.35;;
24337;SDS011;12457;50.832;4.346;2023-06-19T10:08:41;15.32;;;6.75;;
24337;SDS011;12457;50.832;4.346;2023-06-19T10:11:12;15.55;;;7.47;;
24337;SDS011;12457;50.832;4.346;2023-06-19T10:13:42;16.58;;;7.40;;
24337;SDS011;12457;50.832;4.346;2023-06-19T10:16:19;10.88;;;7.32;;
24337;SDS011;12457;50.832;4.346;2023-06-19T10:18:46;12.70;;;6.78;;
24337;SDS011;12457;50.832;4.346;2023-06-19T10:21:17;13.43;;;7.70;;
24337;SDS011;12457;50.832;4.346;2023-06-19T10:23:56;12.50;;;7.38;;
24337;SDS011;12457;50.832;4.346;2023-06-19T10:26:33;15.00;;;7.30;;
24337;SDS011;12457;50.832;4.346;2023-06-19T10:28:59;13.45;;;7.28;;
24337;SDS011;12457;50.832;4.346;2023-06-19T10:31:25;15.18;;;7.20;;
24337;SDS011;12457;50.832;4.346;2023-06-19T10:33:53;15.63;;;7.20;;
24337;SDS011;12457;50.832;4.346;2023-06-19T10:36:20;15.00;;;7.68;;
24337;SDS011;12457;50.832;4.346;2023-06-19T10:38:49;13.63;;;6.80;;
24337;SDS011;12457;50.832;4.346;2023-06-19T10:41:24;16.98;;;7.43;;
24337;SDS011;12457;50.832;4.346;2023-06-19T10:43:55;13.98;;;6.90;;
24337;SDS011;12457;50.832;4.346;2023-06-19T10:46:23;10.80;;;7.00;;
24337;SDS011;12457;50.832;4.346;2023-06-19T10:48:49;12.30;;;7.15;;
24337;SDS011;12457;50.832;4.346;2023-06-19T10:51:19;10.48;;;6.57;;
24337;SDS011;12457;50.832;4.346;2023-06-19T10:53:45;16.27;;;7.25;;
24337;SDS011;12457;50.832;4.346;2023-06-19T10:56:11;11.82;;;6.75;;
24337;SDS011;12457;50.832;4.346;2023-06-19T10:58:37;12.52;;;7.07;;
24337;SDS011;12457;50.832;4.346;2023-06-19T11:01:02;10.77;;;6.35;;
24337;SDS011;12457;50.832;4.346;2023-06-19T11:03:28;12.98;;;6.68;;
24337;SDS011;12457;50.832;4.346;2023-06-19T11:05:56;12.05;;;6.40;;
24337;SDS011;12457;50.832;4.346;2023-06-19T11:08:22;15.27;;;7.00;;
24337;SDS011;12457;50.832;4.346;2023-06-19T11:10:49;14.48;;;7.65;;
24337;SDS011;12457;50.832;4.346;2023-06-19T11:13:16;12.52;;;7.13;;
24337;SDS011;12457;50.832;4.346;2023-06-19T11:15:43;13.88;;;8.57;;
24337;SDS011;12457;50.832;4.346;2023-06-19T11:18:10;17.10;;;8.73;;
24337;SDS011;12457;50.832;4.346;2023-06-19T11:20:46;16.52;;;8.32;;
24337;SDS011;12457;50.832;4.346;2023-06-19T11:23:26;15.10;;;9.63;;
24337;SDS011;12457;50.832;4.346;2023-06-19T11:25:53;18.45;;;9.35;;
24337;SDS011;12457;50.832;4.346;2023-06-19T11:28:19;24.30;;;9.13;;
24337;SDS011;12457;50.832;4.346;2023-06-19T11:30:47;19.65;;;8.75;;
24337;SDS011;12457;50.832;4.346;2023-06-19T11:33:15;17.67;;;9.15;;
24337;SDS011;12457;50.832;4.346;2023-06-19T11:35:50;17.75;;;8.50;;
24337;SDS011;12457;50.832;4.346;2023-06-19T11:38:18;17.60;;;8.80;;
24337;SDS011;12457;50.832;4.346;2023-06-19T11:40:45;18.63;;;8.00;;
24337;SDS011;12457;50.832;4.346;2023-06-19T11:43:11;15.10;;;7.30;;
24337;SDS011;12457;50.832;4.346;2023-06-19T11:45:47;13.25;;;6.63;;
24337;SDS011;12457;50.832;4.346;2023-06-19T11:48:14;12.63;;;6.50;;
24337;SDS011;12457;50.832;4.346;2023-06-19T11:50:46;13.35;;;6.43;;
24337;SDS011;12457;50.832;4.346;2023-06-19T11:53:13;11.45;;;6.18;;
24337;SDS011;12457;50.832;4.346;2023-06-19T11:55:39;13.77;;;6.40;;
24337;SDS011;12457;50.832;4.346;2023-06-19T11:58:06;15.20;;;5.72;;
24337;SDS011;12457;50.832;4.346;2023-06-19T12:00:32;14.02;;;5.32;;
24337;SDS011;12457;50.832;4.346;2023-06-19T12:02:57;10.60;;;5.70;;
24337;SDS011;12457;50.832;4.346;2023-06-19T12:05:23;11.98;;;6.47;;
24337;SDS011;12457;50.832;4.346;2023-06-19T12:07:49;17.50;;;8.07;;
24337;SDS011;12457;50.832;4.346;2023-06-19T12:10:15;19.45;;;7.75;;
24337;SDS011;12457;50.832;4.346;2023-06-19T12:12:41;21.33;;;6.47;;
24337;SDS011;12457;50.832;4.346;2023-06-19T12:15:06;30.02;;;12.38;;
24337;SDS011;12457;50.832;4.346;2023-06-19T12:17:35;10.98;;;5.15;;
24337;SDS011;12457;50.832;4.346;2023-06-19T12:20:02;15.57;;;7.57;;
24337;SDS011;12457;50.832;4.346;2023-06-19T12:22:31;16.80;;;6.72;;
24337;SDS011;12457;50.832;4.346;2023-06-19T12:24:58;21.77;;;6.75;;
24337;SDS011;12457;50.832;4.346;2023-06-19T12:27:23;10.93;;;6.18;;
24337;SDS011;12457;50.832;4.346;2023-06-19T12:29:50;15.20;;;5.90;;
24337;SDS011;12457;50.832;4.346;2023-06-19T12:32:16;18.30;;;8.15;;
24337;SDS011;12457;50.832;4.346;2023-06-19T12:34:42;30.13;;;13.35;;
24337;SDS011;12457;50.832;4.346;2023-06-19T12:37:17;11.27;;;6.05;;
24337;SDS011;12457;50.832;4.346;2023-06-19T12:39:44;11.35;;;6.07;;
24337;SDS011;12457;50.832;4.346;2023-06-19T12:42:09;13.00;;;5.95;;
24337;SDS011;12457;50.832;4.346;2023-06-19T12:44:41;9.27;;;5.10;;
24337;SDS011;12457;50.832;4.346;2023-06-19T12:47:09;8.68;;;5.30;;
24337;SDS011;12457;50.832;4.346;2023-06-19T12:49:36;10.65;;;5.40;;
24337;SDS011;12457;50.832;4.346;2023-06-19T12:54:36;8.73;;;5.68;;
24337;SDS011;12457;50.832;4.346;2023-06-19T12:57:01;10.45;;;7.03;;
24337;SDS011;12457;50.832;4.346;2023-06-19T12:59:27;10.65;;;5.57;;
24337;SDS011;12457;50.832;4.346;2023-06-19T13:01:54;8.13;;;5.03;;
24337;SDS011;12457;50.832;4.346;2023-06-19T13:04:20;8.20;;;4.55;;
24337;SDS011;12457;50.832;4.346;2023-06-19T13:06:45;8.52;;;4.65;;
24337;SDS011;12457;50.832;4.346;2023-06-19T13:09:20;7.80;;;4.57;;
24337;SDS011;12457;50.832;4.346;2023-06-19T13:11:46;7.50;;;5.05;;
24337;SDS011;12457;50.832;4.346;2023-06-19T13:14:12;10.48;;;5.25;;
24337;SDS011;12457;50.832;4.346;2023-06-19T13:16:37;8.98;;;5.03;;
24337;SDS011;12457;50.832;4.346;2023-06-19T13:19:03;7.55;;;4.90;;
24337;SDS011;12457;50.832;4.346;2023-06-19T13:21:29;7.00;;;4.68;;
24337;SDS011;12457;50.832;4.346;2023-06-19T13:23:55;7.25;;;4.65;;
24337;SDS011;12457;50.832;4.346;2023-06-19T13:26:20;9.02;;;4.45;;
24337;SDS011;12457;50.832;4.346;2023-06-19T13:28:46;8.48;;;4.78;;
24337;SDS011;12457;50.832;4.346;2023-06-19T13:31:12;11.88;;;4.43;;
24337;SDS011;12457;50.832;4.346;2023-06-19T13:33:38;6.47;;;4.25;;
24337;SDS011;12457;50.832;4.346;2023-06-19T13:36:04;6.13;;;4.40;;
24337;SDS011;12457;50.832;4.346;2023-06-19T13:38:29;11.82;;;4.93;;
24337;SDS011;12457;50.832;4.346;2023-06-19T13:40:57;11.77;;;5.03;;
24337;SDS011;12457;50.832;4.346;2023-06-19T13:43:23;22.70;;;7.88;;
24337;SDS011;12457;50.832;4.346;2023-06-19T13:45:49;10.98;;;5.20;;
24337;SDS011;12457;50.832;4.346;2023-06-19T13:48:15;13.30;;;4.45;;
24337;SDS011;12457;50.832;4.346;2023-06-19T13:50:40;8.13;;;4.95;;
24337;SDS011;12457;50.832;4.346;2023-06-19T13:53:06;8.85;;;4.30;;
24337;SDS011;12457;50.832;4.346;2023-06-19T13:55:32;10.32;;;5.25;;
24337;SDS011;12457;50.832;4.346;2023-06-19T13:57:57;7.97;;;4.63;;
24337;SDS011;12457;50.832;4.346;2023-06-19T14:00:23;12.57;;;4.70;;
24337;SDS011;12457;50.832;4.346;2023-06-19T14:02:49;9.35;;;4.53;;
24337;SDS011;12457;50.832;4.346;2023-06-19T14:05:15;8.00;;;4.30;;
24337;SDS011;12457;50.832;4.346;2023-06-19T14:07:42;11.13;;;4.97;;
24337;SDS011;12457;50.832;4.346;2023-06-19T14:10:08;7.45;;;4.50;;
24337;SDS011;12457;50.832;4.346;2023-06-19T14:12:34;8.57;;;4.18;;
24337;SDS011;12457;50.832;4.346;2023-06-19T14:15:00;10.13;;;3.78;;
24337;SDS011;12457;50.832;4.346;2023-06-19T14:17:26;9.55;;;4.13;;
24337;SDS011;12457;50.832;4.346;2023-06-19T14:19:51;7.43;;;4.03;;
24337;SDS011;12457;50.832;4.346;2023-06-19T14:22:17;9.82;;;4.60;;
24337;SDS011;12457;50.832;4.346;2023-06-19T14:24:55;6.30;;;4.25;;
24337;SDS011;12457;50.832;4.346;2023-06-19T14:27:24;8.68;;;4.38;;
24337;SDS011;12457;50.832;4.346;2023-06-19T14:29:50;9.75;;;4.38;;
24337;SDS011;12457;50.832;4.346;2023-06-19T14:32:18;8.25;;;4.32;;
24337;SDS011;12457;50.832;4.346;2023-06-19T14:34:44;7.90;;;5.18;;
24337;SDS011;12457;50.832;4.346;2023-06-19T14:37:10;6.85;;;4.38;;
24337;SDS011;12457;50.832;4.346;2023-06-19T14:39:35;7.43;;;3.63;;
24337;SDS011;12457;50.832;4.346;2023-06-19T14:42:02;5.88;;;3.42;;
24337;SDS011;12457;50.832;4.346;2023-06-19T14:44:28;6.75;;;4.28;;
24337;SDS011;12457;50.832;4.346;2023-06-19T14:47:00;7.82;;;4.30;;
24337;SDS011;12457;50.832;4.346;2023-06-19T14:49:25;9.18;;;3.72;;
24337;SDS011;12457;50.832;4.346;2023-06-19T14:51:51;14.18;;;4.07;;